Time;durP1;ratioP1;P1;durP2;ratioP2;P2;SDS_P1;SDS_P2;PMS_P1;PMS_P2;Temp;Humidity;BMP_temperature;BMP_pressure;BME280_temperature;BME280_humidity;BME280_pressure;Samples;Min_cycle;Max_cycle;Signal;HPM_P1;HPM_P2
2022/12/12 00:04:01;;;;;;;52.17;22.10;;;;;;;2.69;71.26;99770.19;10431917;28;20038;-66
2022/12/12 00:09:03;;;;;;;48.13;20.45;;;;;;;2.69;71.72;99775.50;10424247;28;20045;-63
2022/12/12 00:14:05;;;;;;;50.70;22.17;;;;;;;2.71;71.34;99769.06;10421150;28;20041;-62
2022/12/12 00:19:06;;;;;;;54.63;21.60;;;;;;;2.74;71.26;99768.75;10422857;28;20052;-61
2022/12/12 00:24:08;;;;;;;49.65;21.17;;;;;;;2.75;71.57;99775.75;10408017;28;20037;-62
2022/12/12 00:29:10;;;;;;;51.72;20.25;;;;;;;2.76;71.77;99774.78;10418584;28;20509;-62
2022/12/12 00:34:12;;;;;;;52.08;21.00;;;;;;;2.77;71.89;99780.94;10412875;28;20045;-61
2022/12/12 00:39:13;;;;;;;46.95;20.20;;;;;;;2.81;71.84;99770.88;10426637;28;20041;-61
2022/12/12 00:44:18;;;;;;;54.03;21.98;;;;;;;2.75;71.88;99778.41;10410135;28;20034;-61
2022/12/12 00:49:20;;;;;;;55.92;21.08;;;;;;;2.67;72.10;99780.94;10424684;28;20048;-62
2022/12/12 00:54:22;;;;;;;54.70;23.60;;;;;;;2.71;71.94;99782.31;10425009;28;20033;-63
2022/12/12 00:59:23;;;;;;;47.08;21.08;;;;;;;2.75;71.98;99785.53;10421069;28;20053;-61
2022/12/12 01:04:25;;;;;;;50.80;21.23;;;;;;;2.56;72.31;99787.19;10422968;28;20045;-63
2022/12/12 01:09:26;;;;;;;46.42;19.42;;;;;;;2.54;72.56;99786.50;10425154;28;20045;-62
2022/12/12 01:14:28;;;;;;;56.45;21.63;;;;;;;2.49;72.83;99793.19;10422889;28;20396;-60
2022/12/12 01:19:29;;;;;;;47.70;20.38;;;;;;;2.55;72.11;99792.66;10403063;28;20050;-65
2022/12/12 01:24:30;;;;;;;46.30;20.30;;;;;;;2.63;72.06;99789.31;10423236;28;20388;-61
2022/12/12 01:29:33;;;;;;;52.70;21.67;;;;;;;2.68;72.12;99789.72;10425075;28;20041;-63
2022/12/12 01:34:35;;;;;;;52.30;20.83;;;;;;;2.70;71.78;99791.25;10405918;28;20045;-61
2022/12/12 01:39:36;;;;;;;47.42;19.65;;;;;;;2.78;72.18;99782.59;10417118;28;20069;-62
2022/12/12 01:44:44;;;;;;;52.90;20.80;;;;;;;2.86;71.76;99790.69;10425691;28;20500;-61
2022/12/12 01:49:58;;;;;;;55.78;21.45;;;;;;;2.85;71.39;99794.34;10424397;28;20064;-63
2022/12/12 01:55:04;;;;;;;49.55;19.70;;;;;;;2.86;72.17;99790.69;10423918;28;20033;-62
2022/12/12 02:00:07;;;;;;;48.08;19.58;;;;;;;2.88;71.50;99791.38;10424253;28;20045;-65
2022/12/12 02:05:21;;;;;;;54.38;20.85;;;;;;;2.92;71.43;99795.47;10401482;28;20041;-67
2022/12/12 02:10:23;;;;;;;48.13;20.10;;;;;;;2.94;71.94;99811.22;10399995;28;20126;-67
2022/12/12 02:15:29;;;;;;;48.50;19.35;;;;;;;2.95;71.95;99802.31;10401290;28;20128;-67
2022/12/12 02:20:44;;;;;;;50.70;19.90;;;;;;;3.00;71.77;99800.03;10402444;28;20552;-67
2022/12/12 02:26:19;;;;;;;51.17;20.33;;;;;;;3.00;71.70;99801.88;10401442;28;20048;-66
2022/12/12 02:31:26;;;;;;;57.33;22.65;;;;;;;3.03;71.81;99804.25;10397709;28;20048;-67
2022/12/12 02:36:59;;;;;;;49.35;20.30;;;;;;;3.05;71.56;99808.44;10380968;28;20072;-67
2022/12/12 02:42:07;;;;;;;55.35;21.10;;;;;;;3.05;72.05;99811.09;10401294;28;20577;-66
2022/12/12 02:47:14;;;;;;;;;;;;;;;3.05;72.28;99818.22;10402133;28;20473;-65
2022/12/12 02:52:16;;;;;;;50.70;20.77;;;;;;;3.03;72.35;99812.22;10401812;28;19971;-67
2022/12/12 02:57:23;;;;;;;56.38;22.42;;;;;;;3.02;72.34;99811.38;10384304;28;20916;-66
2022/12/12 03:02:48;;;;;;;49.97;23.48;;;;;;;2.98;72.02;99820.59;10399831;28;20104;-66
2022/12/12 03:08:10;;;;;;;48.80;20.90;;;;;;;2.94;71.97;99819.19;10396697;28;20038;-66
2022/12/12 03:13:26;;;;;;;46.85;18.48;;;;;;;2.91;72.06;99819.50;10392560;28;20033;-67
2022/12/12 03:18:39;;;;;;;56.17;20.92;;;;;;;2.93;72.26;99821.00;10401107;28;20133;-67
2022/12/12 03:23:45;;;;;;;49.80;21.60;;;;;;;2.85;71.98;99823.53;10400457;28;20065;-66
2022/12/12 03:28:54;;;;;;;52.30;19.48;;;;;;;2.76;72.19;99829.66;10399427;28;20041;-66
2022/12/12 03:34:01;;;;;;;55.15;22.02;;;;;;;2.77;72.07;99831.34;10400747;28;20136;-67
2022/12/12 03:39:12;;;;;;;53.33;21.88;;;;;;;2.71;72.47;99824.78;10397460;28;20798;-67
2022/12/12 03:44:19;;;;;;;54.58;22.38;;;;;;;2.73;72.54;99822.81;10398164;28;20136;-66
2022/12/12 03:49:33;;;;;;;54.75;22.55;;;;;;;2.69;72.46;99825.91;10398695;28;20125;-66
2022/12/12 03:54:47;;;;;;;54.63;22.60;;;;;;;2.70;72.52;99824.91;10399362;28;20120;-67
2022/12/12 03:59:57;;;;;;;52.05;21.98;;;;;;;2.69;72.71;99820.59;10399233;28;20049;-67
2022/12/12 04:05:19;;;;;;;56.88;23.95;;;;;;;2.66;71.97;99831.47;10398569;28;20132;-67
2022/12/12 04:15:50;;;;;;;55.10;23.50;;;;;;;2.63;72.29;99839.72;10405690;28;20121;-67
2022/12/12 04:26:40;;;;;;;52.47;21.88;;;;;;;2.60;72.85;99837.34;10406182;28;20065;-67
2022/12/12 04:31:57;;;;;;;53.22;22.02;;;;;;;2.55;72.91;99846.56;10406443;28;20053;-67
2022/12/12 04:37:00;;;;;;;61.53;21.25;;;;;;;2.57;72.78;99847.25;10406846;28;20061;-66
2022/12/12 04:42:05;;;;;;;52.70;22.60;;;;;;;2.52;72.35;99846.81;10406103;28;20105;-66
2022/12/12 04:47:08;;;;;;;49.08;22.02;;;;;;;2.63;72.24;99858.31;10406820;28;20136;-66
2022/12/12 04:52:14;;;;;;;59.38;24.23;;;;;;;2.60;72.69;99856.75;10405370;28;20079;-66
2022/12/12 04:57:24;;;;;;;58.13;23.35;;;;;;;2.60;72.10;99855.91;10404814;28;20085;-67
2022/12/12 05:02:39;;;;;;;58.33;24.85;;;;;;;2.59;72.78;99863.03;10403151;28;20113;-67
2022/12/12 05:07:44;;;;;;;56.65;23.55;;;;;;;2.61;72.36;99858.44;10384433;28;20048;-66
2022/12/12 05:12:48;;;;;;;67.57;23.65;;;;;;;2.55;73.06;99864.28;10395763;28;20085;-67
2022/12/12 05:17:59;;;;;;;58.80;24.02;;;;;;;2.55;72.99;99865.13;10403110;28;20188;-66
2022/12/12 05:23:01;;;;;;;60.35;23.95;;;;;;;2.57;72.86;99865.81;10404258;28;20073;-66
2022/12/12 05:28:02;;;;;;;62.33;25.45;;;;;;;2.62;72.78;99868.06;10403783;28;20124;-67
2022/12/12 05:33:04;;;;;;;64.68;26.27;;;;;;;2.63;72.22;99868.91;10400356;28;20068;-67
2022/12/12 05:38:05;;;;;;;62.30;25.25;;;;;;;2.63;72.97;99869.75;10402826;28;20607;-67
2022/12/12 05:43:06;;;;;;;64.43;25.20;;;;;;;2.66;72.66;99874.75;10402866;28;20072;-67
2022/12/12 05:48:08;;;;;;;60.58;26.02;;;;;;;2.60;72.98;99874.47;10400112;28;20073;-67
2022/12/12 05:53:10;;;;;;;58.97;25.40;;;;;;;2.51;73.24;99874.31;10400962;28;20069;-67
2022/12/12 05:58:11;;;;;;;61.80;25.20;;;;;;;2.53;72.89;99882.16;10397167;28;20072;-66
2022/12/12 06:03:12;;;;;;;57.63;23.83;;;;;;;2.51;72.43;99882.28;10400200;28;20556;-66
2022/12/12 06:08:14;;;;;;;60.42;26.83;;;;;;;2.50;72.98;99879.75;10398396;28;20328;-66
2022/12/12 06:13:18;;;;;;;67.65;27.00;;;;;;;2.49;73.14;99886.88;10395000;28;20041;-66
2022/12/12 06:18:19;;;;;;;58.85;25.02;;;;;;;2.49;72.50;99886.88;10403114;28;20065;-66
2022/12/12 06:23:21;;;;;;;57.83;24.95;;;;;;;2.47;73.10;99891.50;10396066;28;20132;-67
2022/12/12 06:28:22;;;;;;;67.22;27.13;;;;;;;2.32;73.78;99890.19;10393862;28;20161;-66
2022/12/12 06:33:24;;;;;;;63.75;24.70;;;;;;;2.28;73.86;99892.25;10399646;28;20079;-66
2022/12/12 06:38:26;;;;;;;65.55;26.90;;;;;;;2.35;72.96;99897.84;10394831;28;20068;-66
2022/12/12 06:43:27;;;;;;;64.75;25.70;;;;;;;2.41;72.87;99899.13;10398633;28;20132;-66
2022/12/12 06:48:30;;;;;;;67.72;27.98;;;;;;;2.42;72.72;99904.31;10398000;28;20128;-67
2022/12/12 06:53:32;;;;;;;64.75;25.92;;;;;;;2.45;73.37;99903.19;10395649;28;20045;-66
2022/12/12 06:58:34;;;;;;;64.68;26.58;;;;;;;2.46;72.62;99911.03;10395987;28;20068;-67
2022/12/12 07:03:35;;;;;;;64.97;25.40;;;;;;;2.45;72.91;99913.81;10382565;28;20544;-66
2022/12/12 07:08:37;;;;;;;64.28;24.58;;;;;;;2.46;72.51;99918.97;10397129;28;20083;-66
2022/12/12 07:13:39;;;;;;;65.38;24.58;;;;;;;2.44;72.47;99928.06;10395838;28;20188;-63
2022/12/12 07:18:41;;;;;;;59.05;23.92;;;;;;;2.53;73.67;99933.41;10399708;28;20073;-63
2022/12/12 07:23:43;;;;;;;62.45;24.95;;;;;;;2.63;72.77;99933.44;10396288;28;20148;-64
2022/12/12 07:28:44;;;;;;;66.15;28.00;;;;;;;2.70;72.67;99941.66;10397968;28;20056;-63
2022/12/12 07:33:46;;;;;;;65.50;27.88;;;;;;;2.72;72.69;99939.72;10393212;28;20073;-64
2022/12/12 07:38:47;;;;;;;71.00;28.42;;;;;;;2.76;72.77;99939.34;10394373;28;20101;-64
2022/12/12 07:43:51;;;;;;;64.53;25.95;;;;;;;2.76;73.65;99955.25;10396978;28;20132;-64
2022/12/12 07:48:52;;;;;;;65.95;28.50;;;;;;;2.77;73.14;99956.91;10400422;28;20072;-64
2022/12/12 07:53:54;;;;;;;62.58;26.40;;;;;;;2.77;73.04;99959.56;10425245;22;20837;-85
2022/12/12 07:58:56;;;;;;;70.55;28.52;;;;;;;2.80;73.59;99958.47;10366996;28;20046;-85
2022/12/12 08:03:58;;;;;;;64.88;27.13;;;;;;;2.84;73.14;99962.50;10380446;28;20048;-87
2022/12/12 08:09:00;;;;;;;63.15;26.50;;;;;;;2.84;73.55;99967.81;10341369;28;20093;-87
2022/12/12 08:14:05;;;;;;;62.53;24.60;;;;;;;2.93;72.97;99971.50;10359666;28;20049;-85
2022/12/12 08:19:13;;;;;;;54.80;24.63;;;;;;;2.95;73.05;99983.66;10343118;28;20042;-85
2022/12/12 08:24:18;;;;;;;63.05;25.80;;;;;;;3.00;73.00;99977.09;10329901;28;20042;-85
2022/12/12 08:29:19;;;;;;;60.13;26.30;;;;;;;3.07;72.98;99987.03;10358610;28;20073;-86
2022/12/12 08:34:21;;;;;;;64.30;26.90;;;;;;;3.14;73.17;99995.28;10347819;28;20050;-85
2022/12/12 08:39:22;;;;;;;63.90;25.33;;;;;;;3.15;73.08;99994.31;10345260;28;20108;-86
2022/12/12 08:44:24;;;;;;;60.58;25.65;;;;;;;3.26;72.80;99996.84;10345507;28;20050;-86
2022/12/12 08:49:25;;;;;;;64.55;25.25;;;;;;;3.34;73.00;99994.34;10320042;28;20065;-86
2022/12/12 08:54:27;;;;;;;61.45;27.73;;;;;;;3.45;73.07;99997.84;10329727;28;20632;-85
2022/12/12 08:59:29;;;;;;;58.80;26.45;;;;;;;3.51;73.13;99994.63;10296667;28;20031;-86
2022/12/12 09:04:32;;;;;;;61.97;26.67;;;;;;;3.57;72.92;99996.72;10313669;28;20416;-85
2022/12/12 09:09:34;;;;;;;51.83;25.17;;;;;;;3.57;73.20;100004.69;10320514;28;20094;-85
2022/12/12 09:14:35;;;;;;;57.17;26.85;;;;;;;3.66;73.02;100001.22;10296439;28;20053;-85
2022/12/12 09:19:37;;;;;;;61.63;24.85;;;;;;;3.75;73.29;100010.16;10284943;28;20046;-85
2022/12/12 09:24:38;;;;;;;61.05;24.70;;;;;;;3.89;73.11;100008.88;10298333;28;20405;-86
2022/12/12 09:29:40;;;;;;;54.65;24.45;;;;;;;4.00;72.48;100022.03;10297582;28;20045;-86
2022/12/12 09:34:42;;;;;;;50.38;24.10;;;;;;;3.90;72.85;100024.69;10301937;28;20043;-86
2022/12/12 09:39:43;;;;;;;56.17;26.85;;;;;;;3.94;72.93;100027.94;10314771;28;20050;-86
2022/12/12 09:44:46;;;;;;;57.65;24.60;;;;;;;4.01;72.77;100023.72;10314607;28;20094;-85
2022/12/12 09:49:54;;;;;;;56.58;25.48;;;;;;;4.00;72.31;100026.53;10305311;28;20043;-85
2022/12/12 09:54:58;;;;;;;59.30;25.60;;;;;;;4.08;71.90;100035.47;10310214;28;20061;-86
2022/12/12 10:00:10;;;;;;;60.97;24.67;;;;;;;4.12;72.18;100036.84;10303106;28;20047;-84
2022/12/12 10:05:40;;;;;;;51.42;23.30;;;;;;;4.21;72.03;100029.84;10311419;28;20129;-85
2022/12/12 10:10:45;;;;;;;62.58;24.25;;;;;;;4.19;72.13;100029.16;10301079;28;20050;-85
2022/12/12 10:15:51;;;;;;;54.30;23.65;;;;;;;4.35;71.79;100020.59;10314696;28;20046;-85
2022/12/12 10:20:56;;;;;;;55.42;26.10;;;;;;;4.34;71.88;100010.91;10305271;28;20042;-85
2022/12/12 10:26:03;;;;;;;55.13;24.27;;;;;;;4.44;71.73;100009.06;10312522;28;20148;-85
2022/12/12 10:31:08;;;;;;;55.65;23.80;;;;;;;4.57;71.74;100012.25;10292976;28;20489;-86
2022/12/12 10:36:26;;;;;;;52.03;24.15;;;;;;;4.76;71.75;100018.50;10309986;28;20389;-86
2022/12/12 10:42:14;;;;;;;50.50;23.05;;;;;;;4.77;71.48;100020.16;10301077;28;20452;-86
2022/12/12 10:47:15;;;;;;;57.78;24.42;;;;;;;4.74;71.33;100020.47;10291623;28;20054;-85
2022/12/12 10:52:20;;;;;;;59.75;26.08;;;;;;;4.74;71.21;100023.13;10315353;28;20047;-86
2022/12/12 10:57:25;;;;;;;62.38;25.60;;;;;;;4.74;71.16;100020.47;10298539;28;20058;-86
2022/12/12 11:02:49;;;;;;;66.05;27.38;;;;;;;4.73;71.20;100024.94;10323112;28;20043;-86
2022/12/12 11:08:17;;;;;;;60.05;24.83;;;;;;;4.80;70.69;100016.34;10304007;28;20054;-86
2022/12/12 11:13:28;;;;;;;57.33;25.45;;;;;;;4.80;70.97;100006.56;10299808;28;20050;-86
2022/12/12 11:18:29;;;;;;;57.60;25.13;;;;;;;4.78;71.06;100011.19;10290925;28;20049;-86
2022/12/12 11:23:33;;;;;;;55.20;24.00;;;;;;;4.66;70.55;99999.91;10309521;28;20058;-87
2022/12/12 11:28:36;;;;;;;56.08;23.10;;;;;;;4.52;70.31;100005.66;10321196;28;20668;-85
2022/12/12 11:33:48;;;;;;;63.10;26.75;;;;;;;4.43;70.49;100007.41;10297702;28;21071;-86
2022/12/12 11:38:53;;;;;;;57.15;22.63;;;;;;;4.39;70.78;99999.84;10316396;28;20042;-85
2022/12/12 11:43:59;;;;;;;59.50;25.13;;;;;;;4.33;70.83;99999.44;10308596;28;20050;-86
2022/12/12 11:49:03;;;;;;;57.25;24.23;;;;;;;4.38;70.78;99996.34;10323707;28;20038;-86
2022/12/12 11:54:43;;;;;;;54.38;22.25;;;;;;;4.32;70.53;100004.91;10314771;28;20066;-87
2022/12/12 12:00:08;;;;;;;47.88;20.48;;;;;;;4.34;70.69;99990.47;10158070;29;20515;-87
2022/12/12 12:05:24;;;;;;;53.42;21.58;;;;;;;4.37;70.42;99989.34;10317944;28;20046;-86
2022/12/12 12:11:01;;;;;;;48.05;20.45;;;;;;;4.40;70.51;99982.88;10343418;28;20046;-87
2022/12/12 12:16:45;;;;;;;47.63;22.10;;;;;;;4.45;70.38;99981.47;10337232;28;20492;-87
2022/12/12 12:22:15;;;;;;;49.58;20.85;;;;;;;4.40;70.26;99982.88;10359105;28;20042;-87
2022/12/12 12:27:50;;;;;;;58.88;24.23;;;;;;;4.20;69.95;99992.75;10317330;28;20030;-87
2022/12/12 12:33:14;;;;;;;62.70;24.50;;;;;;;4.13;70.29;99987.19;10320681;28;20053;-87
2022/12/12 12:38:30;;;;;;;53.85;24.23;;;;;;;4.08;70.21;99987.59;10334387;28;20050;-86
2022/12/12 12:43:56;;;;;;;56.33;24.20;;;;;;;4.03;70.03;99984.53;10338583;28;20042;-87
2022/12/12 12:49:09;;;;;;;56.55;22.60;;;;;;;4.02;70.04;99990.00;10342129;28;20445;-86
2022/12/12 12:54:24;;;;;;;49.53;21.92;;;;;;;4.04;70.13;99982.72;10337767;28;20056;-86
2022/12/12 12:59:33;;;;;;;61.17;21.50;;;;;;;3.97;70.10;99972.66;10343157;28;20444;-86
2022/12/12 13:04:52;;;;;;;57.70;22.08;;;;;;;3.89;70.03;99972.53;10325613;28;20046;-86
2022/12/12 13:10:03;;;;;;;51.95;21.58;;;;;;;3.84;69.95;99969.44;10348663;28;20117;-86
2022/12/12 13:15:43;;;;;;;56.30;21.38;;;;;;;3.88;70.26;99972.66;10358223;28;20440;-86
2022/12/12 13:21:04;;;;;;;51.33;20.75;;;;;;;3.86;69.98;99967.47;10342243;28;20057;-86
2022/12/12 13:26:11;;;;;;;54.10;23.08;;;;;;;3.84;70.19;99958.81;10325027;28;20691;-86
2022/12/12 13:31:23;;;;;;;57.05;22.83;;;;;;;3.88;69.99;99970.00;10357241;28;20398;-86
2022/12/12 13:36:30;;;;;;;51.25;21.90;;;;;;;3.92;69.85;99971.38;10348603;28;20042;-86
2022/12/12 13:41:55;;;;;;;48.20;21.73;;;;;;;3.87;70.04;99971.81;10323276;28;20053;-86
2022/12/12 13:46:57;;;;;;;48.25;20.20;;;;;;;3.83;70.18;99970.44;10363246;28;20052;-86
2022/12/12 13:52:37;;;;;;;45.90;19.50;;;;;;;3.64;70.13;99973.94;10377679;28;20046;-87
2022/12/12 13:57:56;;;;;;;44.60;17.75;;;;;;;3.60;70.20;99966.41;10341176;28;20046;-86
2022/12/12 14:03:03;;;;;;;47.97;19.63;;;;;;;3.55;69.88;99972.13;10345919;28;20038;-87
2022/12/12 14:08:12;;;;;;;52.10;22.00;;;;;;;3.46;70.29;99972.97;10352130;28;20488;-86
2022/12/12 14:13:23;;;;;;;50.67;22.42;;;;;;;3.40;70.14;99973.50;10318515;28;20038;-86
2022/12/12 14:18:32;;;;;;;56.85;23.05;;;;;;;3.30;69.83;99982.31;10340488;28;20108;-86
2022/12/12 14:23:37;;;;;;;52.20;22.13;;;;;;;3.27;69.88;99982.59;10337829;28;20045;-86
2022/12/12 14:28:42;;;;;;;50.83;21.55;;;;;;;3.21;69.75;99980.47;10331590;28;20069;-86
2022/12/12 14:34:04;;;;;;;50.22;19.98;;;;;;;3.12;70.08;99981.28;10354996;28;20041;-86
2022/12/12 14:39:23;;;;;;;48.92;19.88;;;;;;;2.98;70.03;99982.53;10357113;28;20038;-86
2022/12/12 14:44:27;;;;;;;52.65;21.25;;;;;;;2.96;70.07;99987.13;10343711;28;20050;-86
2022/12/12 14:49:39;;;;;;;54.55;22.85;;;;;;;2.93;69.94;99988.25;10358024;28;20132;-86
2022/12/12 14:54:40;;;;;;;53.15;21.63;;;;;;;2.90;69.88;99995.66;10361636;28;20048;-87
2022/12/12 14:59:42;;;;;;;54.05;21.08;;;;;;;2.88;69.63;99997.59;10338426;28;20042;-86
2022/12/12 15:04:48;;;;;;;55.33;21.92;;;;;;;2.84;69.87;99991.72;10325378;28;20033;-87
2022/12/12 15:09:49;;;;;;;53.47;20.13;;;;;;;2.83;69.93;99983.91;10346333;28;20069;-86
2022/12/12 15:21:36;;;;;;;58.55;24.90;;;;;;;2.41;71.26;100000.78;10366603;28;20026;-87
2022/12/12 15:26:38;;;;;;;60.42;24.15;;;;;;;2.43;70.85;100001.50;10344017;28;20125;-87
2022/12/12 15:31:43;;;;;;;51.60;22.52;;;;;;;2.32;71.68;99998.91;10332783;28;20050;-87
2022/12/12 15:36:44;;;;;;;52.95;20.90;;;;;;;2.28;70.92;100000.16;10340699;28;20092;-87
2022/12/12 15:41:46;;;;;;;50.38;21.33;;;;;;;2.29;71.23;99999.16;10325196;28;20547;-87
2022/12/12 15:46:49;;;;;;;60.85;23.38;;;;;;;2.40;71.15;100001.75;10324317;28;20058;-87
2022/12/12 15:51:51;;;;;;;54.15;22.98;;;;;;;2.39;70.87;100005.38;10341323;28;20088;-87
2022/12/12 15:56:55;;;;;;;58.78;24.25;;;;;;;2.29;70.40;100015.06;10356076;28;20044;-87
2022/12/12 16:02:12;;;;;;;47.65;20.63;;;;;;;2.21;70.93;100015.72;10334027;28;20057;-87
2022/12/12 16:07:20;;;;;;;57.93;23.20;;;;;;;2.25;69.85;100011.88;10337891;28;20100;-87
2022/12/12 16:12:55;;;;;;;56.85;21.65;;;;;;;2.21;69.94;100002.47;10335655;28;20101;-87
2022/12/12 16:18:03;;;;;;;53.05;22.73;;;;;;;2.08;69.99;100010.63;10337335;28;20501;-87
2022/12/12 16:23:30;;;;;;;55.22;22.88;;;;;;;2.05;69.95;100013.53;10332983;28;20042;-88
2022/12/12 16:28:32;;;;;;;54.42;22.73;;;;;;;1.94;70.14;100019.75;10348751;28;20931;-87
2022/12/12 16:33:37;;;;;;;59.60;22.30;;;;;;;1.86;70.63;100024.03;10349331;28;20394;-87
2022/12/12 16:38:39;;;;;;;50.63;21.73;;;;;;;1.78;70.78;100027.31;10351385;28;20038;-87
2022/12/12 16:43:43;;;;;;;60.33;23.10;;;;;;;1.67;71.12;100019.41;10357953;28;20153;-88
2022/12/12 16:48:45;;;;;;;55.92;22.00;;;;;;;1.56;70.44;100020.28;10358299;28;20045;-88
2022/12/12 16:53:47;;;;;;;51.58;20.77;;;;;;;1.44;71.22;100022.13;10327890;28;20039;-88
2022/12/12 16:58:49;;;;;;;50.67;21.88;;;;;;;1.37;70.68;100018.31;10350272;28;20483;-89
2022/12/12 17:03:51;;;;;;;52.08;20.25;;;;;;;1.27;70.48;100027.97;10348277;28;20042;-87
2022/12/12 17:08:53;;;;;;;53.35;21.92;;;;;;;1.06;70.87;100025.25;10331783;28;20041;-88
2022/12/12 17:13:54;;;;;;;52.83;20.88;;;;;;;1.00;70.96;100026.56;10361780;28;20046;-87
2022/12/12 17:18:57;;;;;;;44.10;18.92;;;;;;;0.95;71.48;100032.22;10327031;28;20114;-88
2022/12/12 17:23:58;;;;;;;52.85;19.45;;;;;;;0.89;71.40;100035.38;10334363;28;20060;-88
2022/12/12 17:29:01;;;;;;;45.75;20.38;;;;;;;0.87;71.11;100039.09;10331545;28;20142;-90
2022/12/12 17:34:04;;;;;;;49.95;19.13;;;;;;;0.83;71.55;100048.22;10354404;28;20046;-89
2022/12/12 17:39:06;;;;;;;46.10;19.88;;;;;;;0.77;70.90;100047.75;10352962;28;20040;-88
2022/12/12 17:44:08;;;;;;;46.00;18.33;;;;;;;0.69;71.42;100051.94;10331638;28;20052;-90
2022/12/12 17:49:10;;;;;;;52.65;19.58;;;;;;;0.62;71.34;100048.97;10334410;28;20058;-87
2022/12/12 17:54:12;;;;;;;58.70;22.92;;;;;;;0.53;71.35;100053.16;10330622;28;20050;-88
2022/12/12 17:59:13;;;;;;;53.47;22.65;;;;;;;0.42;71.58;100053.16;10354471;28;20065;-89
2022/12/12 18:04:15;;;;;;;49.60;22.30;;;;;;;0.36;71.12;100053.63;10342907;28;20050;-88
2022/12/12 18:09:17;;;;;;;53.22;23.45;;;;;;;0.31;71.83;100047.84;10333787;28;20049;-88
2022/12/12 18:14:19;;;;;;;51.65;22.55;;;;;;;0.24;71.29;100051.91;10334526;28;20578;-88
2022/12/12 18:19:22;;;;;;;52.83;22.88;;;;;;;0.17;71.73;100040.97;10332332;28;20066;-88
2022/12/12 18:24:28;;;;;;;55.83;22.80;;;;;;;0.18;71.60;100042.66;10334430;28;20046;-89
2022/12/12 18:29:31;;;;;;;51.38;19.83;;;;;;;0.20;71.79;100043.38;10326170;28;20043;-89
2022/12/12 18:34:33;;;;;;;47.33;19.42;;;;;;;0.22;71.51;100037.97;10326895;28;20058;-88
2022/12/12 18:39:34;;;;;;;50.97;19.70;;;;;;;0.14;71.49;100049.97;10327179;28;20042;-88
2022/12/12 18:44:36;;;;;;;53.10;19.13;;;;;;;0.09;71.51;100057.41;10329582;28;20082;-87
2022/12/12 18:49:38;;;;;;;46.58;18.38;;;;;;;0.03;71.84;100063.16;10343102;28;20053;-87
2022/12/12 18:54:40;;;;;;;47.33;19.08;;;;;;;-0.12;71.65;100059.88;10324921;28;21213;-87
2022/12/12 18:59:41;;;;;;;48.65;19.48;;;;;;;-0.14;71.34;100059.13;10339689;28;20064;-88
2022/12/12 19:04:47;;;;;;;47.00;20.20;;;;;;;-0.15;71.12;100067.19;10325023;28;20076;-88
2022/12/12 19:09:49;;;;;;;49.78;21.08;;;;;;;-0.19;71.41;100071.84;10332748;28;20488;-88
2022/12/12 19:14:50;;;;;;;45.88;19.65;;;;;;;-0.27;71.38;100072.41;10327087;28;20042;-87
2022/12/12 19:20:12;;;;;;;46.67;20.60;;;;;;;-0.31;71.34;100075.41;10340103;28;20068;-88
2022/12/12 19:25:16;;;;;;;56.55;21.38;;;;;;;-0.37;70.94;100079.31;10321641;28;20046;-88
2022/12/12 19:30:17;;;;;;;44.47;18.13;;;;;;;-0.48;71.14;100074.81;10333168;28;20080;-88
2022/12/12 19:35:20;;;;;;;41.83;17.42;;;;;;;-0.52;71.02;100072.53;10327461;28;20050;-87
2022/12/12 19:40:21;;;;;;;45.97;20.42;;;;;;;-0.58;71.08;100065.88;10349273;28;20076;-87
2022/12/12 19:45:23;;;;;;;52.83;23.27;;;;;;;-0.71;71.22;100063.31;10356886;28;20086;-88
2022/12/12 19:50:25;;;;;;;53.65;22.33;;;;;;;-0.73;71.01;100065.22;10339661;28;20050;-88
2022/12/12 19:55:26;;;;;;;51.92;20.63;;;;;;;-0.71;71.19;100067.72;10327687;28;20049;-87
2022/12/12 20:00:28;;;;;;;44.28;18.23;;;;;;;-0.73;70.99;100067.84;10330409;28;20492;-87
2022/12/12 20:05:29;;;;;;;48.95;19.30;;;;;;;-0.74;70.99;100060.03;10338580;28;20053;-87
2022/12/12 20:10:35;;;;;;;39.28;17.83;;;;;;;-0.76;70.30;100067.22;10326496;28;20682;-88
2022/12/12 20:15:38;;;;;;;52.05;19.52;;;;;;;-0.80;70.80;100071.88;10340053;28;20526;-87
2022/12/12 20:20:39;;;;;;;53.15;21.50;;;;;;;-0.84;70.74;100068.63;10321564;28;20046;-87
2022/12/12 20:25:41;;;;;;;48.45;18.38;;;;;;;-0.87;70.75;100062.72;10325855;28;20054;-87
2022/12/12 20:30:43;;;;;;;50.33;18.08;;;;;;;-0.91;70.63;100075.31;10338083;28;20049;-87
2022/12/12 20:35:44;;;;;;;41.92;17.77;;;;;;;-0.98;70.42;100070.56;10327403;28;20939;-87
2022/12/12 20:40:48;;;;;;;46.25;19.73;;;;;;;-1.05;70.70;100076.28;10335608;28;20038;-87
2022/12/12 20:45:49;;;;;;;48.28;18.77;;;;;;;-1.11;70.52;100074.03;10343259;28;21155;-87
2022/12/12 20:50:53;;;;;;;44.22;18.83;;;;;;;-1.16;70.79;100075.34;10369673;28;20081;-88
2022/12/12 20:55:57;;;;;;;55.95;19.85;;;;;;;-1.25;70.93;100072.38;10354358;28;20038;-88
2022/12/12 21:01:01;;;;;;;50.70;18.98;;;;;;;-1.26;70.84;100085.69;10362324;28;20069;-89
2022/12/12 21:06:35;;;;;;;46.78;19.77;;;;;;;-1.28;70.87;100072.63;10372849;28;20145;-88
2022/12/12 21:11:37;;;;;;;53.03;19.05;;;;;;;-1.30;70.78;100063.13;10343468;28;20049;-87
2022/12/12 21:16:39;;;;;;;46.00;18.27;;;;;;;-1.37;70.77;100075.03;10342233;28;20484;-88
2022/12/12 21:21:42;;;;;;;46.13;18.63;;;;;;;-1.43;70.56;100066.59;10343750;28;20491;-88
2022/12/12 21:26:44;;;;;;;47.92;17.50;;;;;;;-1.47;70.47;100057.22;10330878;28;20058;-88
2022/12/12 21:31:46;;;;;;;47.50;19.20;;;;;;;-1.49;71.02;100060.91;10347803;28;20049;-88
2022/12/12 21:37:21;;;;;;;52.50;18.55;;;;;;;-1.55;70.58;100051.63;10344794;28;20046;-87
2022/12/12 21:42:23;;;;;;;44.20;18.27;;;;;;;-1.58;70.96;100065.00;10352928;28;20049;-87
2022/12/12 21:47:24;;;;;;;52.67;17.40;;;;;;;-1.60;70.81;100061.63;10330193;28;20617;-86
2022/12/12 21:52:26;;;;;;;44.15;16.23;;;;;;;-1.64;70.84;100068.06;10336677;28;20030;-88
2022/12/12 21:57:27;;;;;;;47.38;17.27;;;;;;;-1.67;70.91;100063.88;10311998;28;20061;-88
2022/12/12 22:02:29;;;;;;;43.33;18.45;;;;;;;-1.72;70.76;100065.13;10312774;28;20049;-89
2022/12/12 22:07:33;;;;;;;41.50;18.35;;;;;;;-1.77;70.57;100057.53;10323316;28;20126;-87
2022/12/12 22:12:35;;;;;;;42.55;16.05;;;;;;;-1.80;70.55;100058.59;10300495;28;20101;-88
2022/12/12 22:17:36;;;;;;;47.42;17.77;;;;;;;-1.90;70.88;100060.16;10309085;28;20130;-87
2022/12/12 22:22:38;;;;;;;44.90;16.58;;;;;;;-1.98;71.30;100053.72;10321666;28;20051;-88
2022/12/12 22:27:39;;;;;;;45.50;17.98;;;;;;;-1.97;70.72;100052.75;10296114;28;20074;-88
2022/12/12 22:32:41;;;;;;;46.15;17.52;;;;;;;-2.01;70.71;100054.78;10320549;28;20062;-88
2022/12/12 22:37:43;;;;;;;48.20;17.50;;;;;;;-2.01;70.78;100052.16;10322012;28;20033;-88
2022/12/12 22:42:45;;;;;;;43.78;17.38;;;;;;;-2.11;70.89;100048.41;10309594;28;20078;-87
2022/12/12 22:47:46;;;;;;;51.47;18.60;;;;;;;-2.08;71.01;100049.06;10323420;28;20104;-87
2022/12/12 22:52:48;;;;;;;46.28;17.23;;;;;;;-2.07;70.93;100047.28;10318538;28;20038;-87
2022/12/12 22:57:51;;;;;;;44.63;17.42;;;;;;;-2.07;70.60;100034.97;10308181;28;20042;-89
2022/12/12 23:02:55;;;;;;;43.05;15.70;;;;;;;-2.12;70.40;100039.69;10318156;28;20042;-89
2022/12/12 23:07:58;;;;;;;37.50;16.05;;;;;;;-2.14;70.96;100040.75;10321482;28;20134;-88
2022/12/12 23:13:00;;;;;;;44.63;15.07;;;;;;;-2.20;70.44;100039.34;10326875;28;20057;-88
2022/12/12 23:18:01;;;;;;;45.50;17.13;;;;;;;-2.24;70.66;100036.06;10344581;22;20057;-68
2022/12/12 23:23:02;;;;;;;45.20;17.25;;;;;;;-2.25;70.68;100029.16;10384984;28;20073;-67
2022/12/12 23:28:04;;;;;;;42.50;17.00;;;;;;;-2.26;70.28;100031.88;10381708;28;20754;-66
2022/12/12 23:33:11;;;;;;;43.83;16.40;;;;;;;-2.30;70.78;100033.84;10383371;28;20457;-67
2022/12/12 23:38:12;;;;;;;48.28;16.45;;;;;;;-2.35;70.76;100037.72;10383101;28;20132;-68